Main page
METAR-TAF:

METAR-TAF

Airports :

Tenerife–South Airport

Tenerife South, Spain

latitude: 28-03N, longitude: 016-34W, elevation: 64 m

Current weather observation

The report was made 30 minutes ago, at 02:00 UTC
Wind 16 kt from the East/Northeast
Temperature 18°C
Humidity 59%
Pressure 1024 hPa
Visibility 10 km or more
Broken clouds at a height of 4000 ft

METAR: GCTS 240200Z 07016KT 9999 BKN040 18/10 Q1024 NOSIG

Time: 02:30 (02:30 UTC)

Forecast

The report was made 30 minutes ago, at 02:00 UTC
Forecast valid from 24 at 03 UTC to 25 at 03 UTC
Wind 19 kt from the Northeast
Visibility 10 km or more
Scattered clouds at a height of 3000 ft
Probability 40% :
Temporary
from 24 at 03 UTC to 24 at 10 UTC
Wind 18 kt from the East with gusts up to 28 kt
Probability 30% :
Temporary
from 24 at 10 UTC to 24 at 21 UTC
Wind 20 kt from the East with gusts up to 30 kt

TAF: GCTS 240200Z 2403/2503 05019KT 9999 SCT030 TX24/2414Z TN15/2406Z PROB40 TEMPO 2403/2410 09018G28KT PROB30 TEMPO 2410/2421 09020G30KT

Weather observations and forecasts of more than 4000 airports (METAR and TAF reports).

The available stations are represented by yellow and red dots on the map.

Hover mouse over dot to see the name of the station.

Then click to see weather observations and forecasts.

To change the map : click on the green buttons with a black cross to zoom in, on the green button with a dash to zoom out, or on the green arrows for adjacent maps.


METAR-TAF: